sensor_id;sensor_type;location;lat;lon;timestamp;pressure;altitude;pressure_sealevel;temperature;humidity
66887;BME280;67239;51.680;5.976;2023-02-28T00:01:29;103010.56;;;-1.22;77.69
66887;BME280;67239;51.680;5.976;2023-02-28T00:03:58;103005.47;;;-1.21;77.62
66887;BME280;67239;51.680;5.976;2023-02-28T00:06:25;103008.84;;;-1.22;77.46
66887;BME280;67239;51.680;5.976;2023-02-28T00:08:53;103009.84;;;-1.20;77.48
66887;BME280;67239;51.680;5.976;2023-02-28T00:11:20;103004.53;;;-1.23;77.35
66887;BME280;67239;51.680;5.976;2023-02-28T00:13:47;103002.88;;;-1.21;77.51
66887;BME280;67239;51.680;5.976;2023-02-28T00:16:18;103006.44;;;-1.19;77.61
66887;BME280;67239;51.680;5.976;2023-02-28T00:18:48;103002.97;;;-1.19;77.55
66887;BME280;67239;51.680;5.976;2023-02-28T00:21:16;103004.75;;;-1.18;77.43
66887;BME280;67239;51.680;5.976;2023-02-28T00:23:44;103008.97;;;-1.20;77.40
66887;BME280;67239;51.680;5.976;2023-02-28T00:26:11;103004.66;;;-1.20;77.52
66887;BME280;67239;51.680;5.976;2023-02-28T00:28:43;103001.25;;;-1.19;77.52
66887;BME280;67239;51.680;5.976;2023-02-28T00:31:10;103002.97;;;-1.19;77.50
66887;BME280;67239;51.680;5.976;2023-02-28T00:33:37;103002.31;;;-1.15;77.56
66887;BME280;67239;51.680;5.976;2023-02-28T00:36:09;103000.63;;;-1.15;77.34
66887;BME280;67239;51.680;5.976;2023-02-28T00:38:38;102992.94;;;-1.13;77.47
66887;BME280;67239;51.680;5.976;2023-02-28T00:41:07;102989.47;;;-1.14;77.35
66887;BME280;67239;51.680;5.976;2023-02-28T00:43:36;102991.09;;;-1.16;77.37
66887;BME280;67239;51.680;5.976;2023-02-28T00:46:05;102990.19;;;-1.16;77.43
66887;BME280;67239;51.680;5.976;2023-02-28T00:48:33;102995.44;;;-1.15;77.63
66887;BME280;67239;51.680;5.976;2023-02-28T00:51:00;103002.31;;;-1.15;77.39
66887;BME280;67239;51.680;5.976;2023-02-28T00:53:28;103002.97;;;-1.19;77.70
66887;BME280;67239;51.680;5.976;2023-02-28T00:55:56;102992.53;;;-1.21;77.69
66887;BME280;67239;51.680;5.976;2023-02-28T00:58:25;102997.81;;;-1.19;77.55
66887;BME280;67239;51.680;5.976;2023-02-28T01:00:53;103008.97;;;-1.20;77.52
66887;BME280;67239;51.680;5.976;2023-02-28T01:03:21;103007.97;;;-1.22;77.70
66887;BME280;67239;51.680;5.976;2023-02-28T01:05:49;103014.03;;;-1.22;77.77
66887;BME280;67239;51.680;5.976;2023-02-28T01:08:17;103010.50;;;-1.24;77.89
66887;BME280;67239;51.680;5.976;2023-02-28T01:10:44;103021.50;;;-1.28;77.83
66887;BME280;67239;51.680;5.976;2023-02-28T01:13:12;103018.59;;;-1.34;77.72
66887;BME280;67239;51.680;5.976;2023-02-28T01:15:46;103012.19;;;-1.41;77.83
66887;BME280;67239;51.680;5.976;2023-02-28T01:18:19;103024.13;;;-1.43;77.95
66887;BME280;67239;51.680;5.976;2023-02-28T01:20:47;103015.75;;;-1.39;78.37
66887;BME280;67239;51.680;5.976;2023-02-28T01:23:15;103011.88;;;-1.31;78.58
66887;BME280;67239;51.680;5.976;2023-02-28T01:25:42;103013.91;;;-1.25;78.28
66887;BME280;67239;51.680;5.976;2023-02-28T01:28:09;103012.44;;;-1.20;78.33
66887;BME280;67239;51.680;5.976;2023-02-28T01:30:36;103005.88;;;-1.13;78.37
66887;BME280;67239;51.680;5.976;2023-02-28T01:33:05;103008.72;;;-1.08;78.37
66887;BME280;67239;51.680;5.976;2023-02-28T01:35:33;103009.69;;;-1.06;78.16
66887;BME280;67239;51.680;5.976;2023-02-28T01:38:02;103009.63;;;-1.08;78.20
66887;BME280;67239;51.680;5.976;2023-02-28T01:40:47;103005.47;;;-1.04;77.99
66887;BME280;67239;51.680;5.976;2023-02-28T01:43:23;103009.13;;;-1.01;78.09
66887;BME280;67239;51.680;5.976;2023-02-28T01:45:57;103007.66;;;-0.96;77.95
66887;BME280;67239;51.680;5.976;2023-02-28T01:48:32;103001.81;;;-0.91;78.03
66887;BME280;67239;51.680;5.976;2023-02-28T01:51:08;103004.66;;;-0.87;77.85
66887;BME280;67239;51.680;5.976;2023-02-28T01:53:54;102997.06;;;-0.84;77.46
66887;BME280;67239;51.680;5.976;2023-02-28T01:56:33;102998.03;;;-0.82;77.53
66887;BME280;67239;51.680;5.976;2023-02-28T01:59:04;102995.50;;;-0.80;77.55
66887;BME280;67239;51.680;5.976;2023-02-28T02:01:31;102993.78;;;-0.80;77.38
66887;BME280;67239;51.680;5.976;2023-02-28T02:04:02;102998.91;;;-0.81;77.37
66887;BME280;67239;51.680;5.976;2023-02-28T02:06:37;102995.34;;;-0.83;77.48
66887;BME280;67239;51.680;5.976;2023-02-28T02:09:10;102995.34;;;-0.83;77.70
66887;BME280;67239;51.680;5.976;2023-02-28T02:11:41;102995.50;;;-0.80;77.49
66887;BME280;67239;51.680;5.976;2023-02-28T02:17:10;102987.44;;;-0.68;77.50
66887;BME280;67239;51.680;5.976;2023-02-28T02:22:39;102978.13;;;-0.65;77.25
66887;BME280;67239;51.680;5.976;2023-02-28T02:37:27;102985.78;;;-0.50;77.01
66887;BME280;67239;51.680;5.976;2023-02-28T02:40:14;102983.41;;;-0.45;76.86
66887;BME280;67239;51.680;5.976;2023-02-28T02:42:50;102987.72;;;-0.45;76.81
66887;BME280;67239;51.680;5.976;2023-02-28T02:45:32;102987.88;;;-0.42;76.72
66887;BME280;67239;51.680;5.976;2023-02-28T02:48:07;102984.50;;;-0.41;76.83
66887;BME280;67239;51.680;5.976;2023-02-28T02:50:39;102984.56;;;-0.40;76.55
66887;BME280;67239;51.680;5.976;2023-02-28T02:53:11;102994.19;;;-0.37;76.67
66887;BME280;67239;51.680;5.976;2023-02-28T02:55:44;102985.59;;;-0.36;76.47
66887;BME280;67239;51.680;5.976;2023-02-28T02:58:23;102982.19;;;-0.35;76.62
66887;BME280;67239;51.680;5.976;2023-02-28T03:00:57;102978.84;;;-0.33;76.54
66887;BME280;67239;51.680;5.976;2023-02-28T03:03:28;102979.75;;;-0.32;76.41
66887;BME280;67239;51.680;5.976;2023-02-28T03:05:59;102987.66;;;-0.29;76.24
66887;BME280;67239;51.680;5.976;2023-02-28T03:08:29;102985.38;;;-0.23;75.98
66887;BME280;67239;51.680;5.976;2023-02-28T03:11:06;102977.66;;;-0.21;75.92
66887;BME280;67239;51.680;5.976;2023-02-28T03:16:38;102975.31;;;-0.17;75.67
66887;BME280;67239;51.680;5.976;2023-02-28T03:24:58;102976.50;;;-0.10;75.32
66887;BME280;67239;51.680;5.976;2023-02-28T03:28:11;102982.72;;;-0.06;75.11
66887;BME280;67239;51.680;5.976;2023-02-28T03:30:51;102981.16;;;-0.03;74.80
66887;BME280;67239;51.680;5.976;2023-02-28T03:33:28;102978.66;;;-0.01;74.65
66887;BME280;67239;51.680;5.976;2023-02-28T03:36:07;102982.31;;;0.04;74.28
66887;BME280;67239;51.680;5.976;2023-02-28T03:38:49;102981.53;;;0.05;74.17
66887;BME280;67239;51.680;5.976;2023-02-28T03:41:23;102985.06;;;0.07;74.09
66887;BME280;67239;51.680;5.976;2023-02-28T03:44:22;102984.28;;;0.08;73.84
66887;BME280;67239;51.680;5.976;2023-02-28T03:47:00;102981.72;;;0.10;73.83
66887;BME280;67239;51.680;5.976;2023-02-28T03:49:40;102984.31;;;0.10;73.77
66887;BME280;67239;51.680;5.976;2023-02-28T03:52:14;102982.69;;;0.12;73.81
66887;BME280;67239;51.680;5.976;2023-02-28T03:54:51;102975.78;;;0.12;73.95
66887;BME280;67239;51.680;5.976;2023-02-28T04:00:15;102972.31;;;0.12;73.88
66887;BME280;67239;51.680;5.976;2023-02-28T04:02:48;102966.38;;;0.14;73.77
66887;BME280;67239;51.680;5.976;2023-02-28T04:05:20;102968.97;;;0.14;73.64
66887;BME280;67239;51.680;5.976;2023-02-28T04:07:48;102974.22;;;0.16;73.34
66887;BME280;67239;51.680;5.976;2023-02-28T04:10:16;102966.38;;;0.14;73.58
66887;BME280;67239;51.680;5.976;2023-02-28T04:12:43;102962.91;;;0.14;73.60
66887;BME280;67239;51.680;5.976;2023-02-28T04:15:10;102962.91;;;0.14;73.82
66887;BME280;67239;51.680;5.976;2023-02-28T04:17:38;102967.19;;;0.13;73.43
66887;BME280;67239;51.680;5.976;2023-02-28T04:20:05;102967.28;;;0.15;72.97
66887;BME280;67239;51.680;5.976;2023-02-28T04:22:36;102968.97;;;0.14;73.30
66887;BME280;67239;51.680;5.976;2023-02-28T04:25:04;102968.97;;;0.14;73.27
66887;BME280;67239;51.680;5.976;2023-02-28T04:27:32;102973.28;;;0.14;73.42
66887;BME280;67239;51.680;5.976;2023-02-28T04:30:00;102975.94;;;0.15;73.13
66887;BME280;67239;51.680;5.976;2023-02-28T04:32:27;102977.66;;;0.15;73.02
66887;BME280;67239;51.680;5.976;2023-02-28T04:34:54;102975.06;;;0.15;73.12
66887;BME280;67239;51.680;5.976;2023-02-28T04:37:21;102980.25;;;0.15;73.33
66887;BME280;67239;51.680;5.976;2023-02-28T04:39:54;102975.94;;;0.15;73.49
66887;BME280;67239;51.680;5.976;2023-02-28T04:42:21;102979.50;;;0.18;73.42
66887;BME280;67239;51.680;5.976;2023-02-28T04:44:48;102975.19;;;0.18;73.49
66887;BME280;67239;51.680;5.976;2023-02-28T04:47:15;102976.09;;;0.19;73.30
66887;BME280;67239;51.680;5.976;2023-02-28T04:49:43;102972.59;;;0.18;73.29
66887;BME280;67239;51.680;5.976;2023-02-28T04:52:10;102983.94;;;0.20;73.26
66887;BME280;67239;51.680;5.976;2023-02-28T04:54:37;102978.81;;;0.22;73.10
66887;BME280;67239;51.680;5.976;2023-02-28T04:57:05;102980.53;;;0.21;72.79
66887;BME280;67239;51.680;5.976;2023-02-28T04:59:32;102983.13;;;0.21;73.02
66887;BME280;67239;51.680;5.976;2023-02-28T05:01:59;102983.94;;;0.20;73.33
66887;BME280;67239;51.680;5.976;2023-02-28T05:04:26;102988.31;;;0.21;73.20
66887;BME280;67239;51.680;5.976;2023-02-28T05:06:53;102994.25;;;0.19;73.30
66887;BME280;67239;51.680;5.976;2023-02-28T05:09:22;102997.72;;;0.19;73.17
66887;BME280;67239;51.680;5.976;2023-02-28T05:11:48;102994.31;;;0.20;73.11
66887;BME280;67239;51.680;5.976;2023-02-28T05:14:15;102996.91;;;0.20;73.06
66887;BME280;67239;51.680;5.976;2023-02-28T05:16:42;102995.94;;;0.18;73.08
66887;BME280;67239;51.680;5.976;2023-02-28T05:19:10;103002.75;;;0.16;73.32
66887;BME280;67239;51.680;5.976;2023-02-28T05:21:39;103000.09;;;0.14;73.68
66887;BME280;67239;51.680;5.976;2023-02-28T05:24:11;103002.66;;;0.13;73.90
66887;BME280;67239;51.680;5.976;2023-02-28T05:26:41;103002.66;;;0.13;73.81
66887;BME280;67239;51.680;5.976;2023-02-28T05:29:10;103003.44;;;0.12;73.74
66887;BME280;67239;51.680;5.976;2023-02-28T05:31:37;103004.31;;;0.12;73.85
66887;BME280;67239;51.680;5.976;2023-02-28T05:34:05;103005.16;;;0.11;74.25
66887;BME280;67239;51.680;5.976;2023-02-28T05:36:33;103009.53;;;0.12;74.20
66887;BME280;67239;51.680;5.976;2023-02-28T05:39:00;103002.66;;;0.13;74.10
66887;BME280;67239;51.680;5.976;2023-02-28T05:41:27;103019.91;;;0.12;74.29
66887;BME280;67239;51.680;5.976;2023-02-28T05:43:57;103012.88;;;0.10;74.55
66887;BME280;67239;51.680;5.976;2023-02-28T05:46:24;103009.94;;;0.22;76.42
66887;BME280;67239;51.680;5.976;2023-02-28T05:48:51;103014.31;;;0.41;76.99
66887;BME280;67239;51.680;5.976;2023-02-28T05:51:21;103017.91;;;0.63;78.29
66887;BME280;67239;51.680;5.976;2023-02-28T05:53:48;103015.88;;;0.95;78.78
66887;BME280;67239;51.680;5.976;2023-02-28T05:56:16;103018.47;;;1.14;76.83
66887;BME280;67239;51.680;5.976;2023-02-28T05:58:43;103011.94;;;1.24;75.94
66887;BME280;67239;51.680;5.976;2023-02-28T06:01:32;103014.63;;;1.26;74.32
66887;BME280;67239;51.680;5.976;2023-02-28T06:04:02;103016.31;;;1.25;74.38
66887;BME280;67239;51.680;5.976;2023-02-28T06:06:31;103017.81;;;1.39;73.89
66887;BME280;67239;51.680;5.976;2023-02-28T06:09:04;103015.53;;;1.47;71.94
66887;BME280;67239;51.680;5.976;2023-02-28T06:11:32;103015.22;;;1.39;71.56
66887;BME280;67239;51.680;5.976;2023-02-28T06:14:01;103018.91;;;1.25;71.02
66887;BME280;67239;51.680;5.976;2023-02-28T06:16:30;103024.19;;;1.07;70.92
66887;BME280;67239;51.680;5.976;2023-02-28T06:19:02;103026.38;;;0.98;70.62
66887;BME280;67239;51.680;5.976;2023-02-28T06:21:31;103036.84;;;0.80;70.64
66887;BME280;67239;51.680;5.976;2023-02-28T06:23:58;103035.25;;;0.64;70.92
66887;BME280;67239;51.680;5.976;2023-02-28T06:26:26;103032.03;;;0.50;70.80
66887;BME280;67239;51.680;5.976;2023-02-28T06:28:53;103038.47;;;0.40;71.24
66887;BME280;67239;51.680;5.976;2023-02-28T06:31:21;103039.78;;;0.30;71.38
66887;BME280;67239;51.680;5.976;2023-02-28T06:33:48;103037.63;;;0.21;71.39
66887;BME280;67239;51.680;5.976;2023-02-28T06:36:16;103040.66;;;0.12;71.62
66887;BME280;67239;51.680;5.976;2023-02-28T06:38:44;103039.41;;;0.04;71.51
66887;BME280;67239;51.680;5.976;2023-02-28T06:41:11;103043.47;;;-0.01;71.63
66887;BME280;67239;51.680;5.976;2023-02-28T06:43:40;103039.75;;;-0.06;71.77
66887;BME280;67239;51.680;5.976;2023-02-28T06:46:12;103045.75;;;-0.07;71.68
66887;BME280;67239;51.680;5.976;2023-02-28T06:48:42;103051.03;;;-0.06;71.55
66887;BME280;67239;51.680;5.976;2023-02-28T06:51:12;103048.56;;;-0.03;71.51
66887;BME280;67239;51.680;5.976;2023-02-28T06:53:49;103053.84;;;-0.01;71.48
66887;BME280;67239;51.680;5.976;2023-02-28T06:56:17;103061.06;;;0.05;71.27
66887;BME280;67239;51.680;5.976;2023-02-28T06:58:48;103054.16;;;0.05;71.33
66887;BME280;67239;51.680;5.976;2023-02-28T07:01:16;103053.50;;;0.09;70.96
66887;BME280;67239;51.680;5.976;2023-02-28T07:03:44;103058.00;;;0.13;70.54
66887;BME280;67239;51.680;5.976;2023-02-28T07:06:12;103059.03;;;0.17;70.33
66887;BME280;67239;51.680;5.976;2023-02-28T07:08:39;103061.63;;;0.17;70.51
66887;BME280;67239;51.680;5.976;2023-02-28T07:11:07;103061.84;;;0.22;70.27
66887;BME280;67239;51.680;5.976;2023-02-28T07:13:35;103063.50;;;0.20;70.47
66887;BME280;67239;51.680;5.976;2023-02-28T07:16:05;103061.78;;;0.20;70.55
66887;BME280;67239;51.680;5.976;2023-02-28T07:18:34;103054.16;;;0.23;70.09
66887;BME280;67239;51.680;5.976;2023-02-28T07:21:07;103067.25;;;0.26;69.83
66887;BME280;67239;51.680;5.976;2023-02-28T07:23:36;103055.03;;;0.24;69.66
66887;BME280;67239;51.680;5.976;2023-02-28T07:26:11;103060.44;;;0.28;69.51
66887;BME280;67239;51.680;5.976;2023-02-28T07:28:42;103064.81;;;0.29;69.26
66887;BME280;67239;51.680;5.976;2023-02-28T07:31:10;103074.38;;;0.30;68.94
66887;BME280;67239;51.680;5.976;2023-02-28T07:33:38;103070.28;;;0.36;68.28
66887;BME280;67239;51.680;5.976;2023-02-28T07:36:10;103072.97;;;0.37;68.58
66887;BME280;67239;51.680;5.976;2023-02-28T07:38:43;103070.53;;;0.40;68.19
66887;BME280;67239;51.680;5.976;2023-02-28T07:41:15;103080.97;;;0.42;68.26
66887;BME280;67239;51.680;5.976;2023-02-28T07:43:44;103082.75;;;0.43;67.92
66887;BME280;67239;51.680;5.976;2023-02-28T07:46:14;103091.28;;;0.40;68.26
66887;BME280;67239;51.680;5.976;2023-02-28T07:48:43;103081.72;;;0.39;67.84
66887;BME280;67239;51.680;5.976;2023-02-28T07:51:11;103088.59;;;0.39;67.46
66887;BME280;67239;51.680;5.976;2023-02-28T07:53:38;103085.03;;;0.37;67.57
66887;BME280;67239;51.680;5.976;2023-02-28T07:56:06;103083.50;;;0.40;67.67
66887;BME280;67239;51.680;5.976;2023-02-28T07:58:33;103081.84;;;0.42;67.51
66887;BME280;67239;51.680;5.976;2023-02-28T08:01:08;103082.00;;;0.45;66.89
66887;BME280;67239;51.680;5.976;2023-02-28T08:03:37;103088.59;;;0.57;65.97
66887;BME280;67239;51.680;5.976;2023-02-28T08:06:08;103088.06;;;0.64;65.82
66887;BME280;67239;51.680;5.976;2023-02-28T08:08:41;103089.19;;;0.69;65.56
66887;BME280;67239;51.680;5.976;2023-02-28T08:11:08;103086.19;;;0.80;65.42
66887;BME280;67239;51.680;5.976;2023-02-28T08:13:35;103084.06;;;0.90;65.12
66887;BME280;67239;51.680;5.976;2023-02-28T08:16:02;103089.03;;;1.04;64.67
66887;BME280;67239;51.680;5.976;2023-02-28T08:18:30;103080.81;;;1.14;63.86
66887;BME280;67239;51.680;5.976;2023-02-28T08:20:58;103083.69;;;1.20;64.15
66887;BME280;67239;51.680;5.976;2023-02-28T08:23:25;103091.00;;;1.29;63.74
66887;BME280;67239;51.680;5.976;2023-02-28T08:25:54;103085.25;;;1.36;62.21
66887;BME280;67239;51.680;5.976;2023-02-28T08:28:23;103076.00;;;1.43;60.88
66887;BME280;67239;51.680;5.976;2023-02-28T08:30:53;103078.81;;;1.48;60.70
66887;BME280;67239;51.680;5.976;2023-02-28T08:33:22;103068.66;;;1.54;60.04
66887;BME280;67239;51.680;5.976;2023-02-28T08:35:55;103071.53;;;1.60;58.60
66887;BME280;67239;51.680;5.976;2023-02-28T08:38:23;103079.53;;;1.65;59.58
66887;BME280;67239;51.680;5.976;2023-02-28T08:41:01;103078.16;;;1.73;59.21
66887;BME280;67239;51.680;5.976;2023-02-28T08:43:30;103085.47;;;1.82;59.34
66887;BME280;67239;51.680;5.976;2023-02-28T08:45:57;103079.81;;;1.92;58.96
66887;BME280;67239;51.680;5.976;2023-02-28T08:48:26;103076.69;;;2.01;57.30
66887;BME280;67239;51.680;5.976;2023-02-28T08:50:58;103085.63;;;2.08;57.84
66887;BME280;67239;51.680;5.976;2023-02-28T08:53:33;103078.91;;;2.13;56.50
66887;BME280;67239;51.680;5.976;2023-02-28T08:56:09;103079.28;;;2.22;54.91
66887;BME280;67239;51.680;5.976;2023-02-28T08:58:38;103085.38;;;2.23;54.48
66887;BME280;67239;51.680;5.976;2023-02-28T09:01:11;103090.84;;;2.29;53.97
66887;BME280;67239;51.680;5.976;2023-02-28T09:03:43;103083.31;;;2.37;53.01
66887;BME280;67239;51.680;5.976;2023-02-28T09:06:13;103081.63;;;2.37;53.55
66887;BME280;67239;51.680;5.976;2023-02-28T09:08:43;103084.31;;;2.40;53.97
66887;BME280;67239;51.680;5.976;2023-02-28T09:11:10;103077.59;;;2.45;53.11
66887;BME280;67239;51.680;5.976;2023-02-28T09:13:38;103083.69;;;2.46;53.76
66887;BME280;67239;51.680;5.976;2023-02-28T09:16:08;103070.78;;;2.49;52.94
66887;BME280;67239;51.680;5.976;2023-02-28T09:18:38;103072.63;;;2.52;53.84
66887;BME280;67239;51.680;5.976;2023-02-28T09:21:08;103072.28;;;2.65;52.28
66887;BME280;67239;51.680;5.976;2023-02-28T09:23:41;103074.34;;;2.74;51.91
66887;BME280;67239;51.680;5.976;2023-02-28T09:26:13;103063.28;;;2.79;52.05
66887;BME280;67239;51.680;5.976;2023-02-28T09:28:45;103066.22;;;2.89;52.05
66887;BME280;67239;51.680;5.976;2023-02-28T09:31:19;103073.47;;;2.98;51.04
66887;BME280;67239;51.680;5.976;2023-02-28T09:33:50;103069.53;;;3.09;48.81
66887;BME280;67239;51.680;5.976;2023-02-28T09:36:19;103066.31;;;3.16;47.88
66887;BME280;67239;51.680;5.976;2023-02-28T09:38:50;103067.34;;;3.20;47.14
66887;BME280;67239;51.680;5.976;2023-02-28T09:41:22;103065.72;;;3.23;47.60
66887;BME280;67239;51.680;5.976;2023-02-28T09:43:55;103064.25;;;3.30;47.37
66887;BME280;67239;51.680;5.976;2023-02-28T09:46:33;103069.69;;;3.38;47.56
66887;BME280;67239;51.680;5.976;2023-02-28T09:49:19;103062.16;;;3.46;47.29
66887;BME280;67239;51.680;5.976;2023-02-28T09:52:00;103071.13;;;3.54;45.85
66887;BME280;67239;51.680;5.976;2023-02-28T09:54:32;103071.13;;;3.54;45.47
66887;BME280;67239;51.680;5.976;2023-02-28T09:57:08;103069.47;;;3.56;45.15
66887;BME280;67239;51.680;5.976;2023-02-28T10:05:50;103059.75;;;3.78;44.21
66887;BME280;67239;51.680;5.976;2023-02-28T10:08:26;103059.09;;;3.83;44.47
66887;BME280;67239;51.680;5.976;2023-02-28T10:10:59;103048.75;;;3.86;44.34
66887;BME280;67239;51.680;5.976;2023-02-28T10:16:21;103052.66;;;3.99;44.03
66887;BME280;67239;51.680;5.976;2023-02-28T10:18:59;103051.69;;;3.97;44.61
66887;BME280;67239;51.680;5.976;2023-02-28T10:21:42;103049.28;;;4.03;43.48
66887;BME280;67239;51.680;5.976;2023-02-28T10:24:51;103047.97;;;4.16;43.58
66887;BME280;67239;51.680;5.976;2023-02-28T10:27:22;103046.50;;;4.25;43.01
66887;BME280;67239;51.680;5.976;2023-02-28T10:29:57;103049.94;;;4.24;43.80
66887;BME280;67239;51.680;5.976;2023-02-28T10:32:30;103051.00;;;4.30;43.59
66887;BME280;67239;51.680;5.976;2023-02-28T10:35:01;103049.63;;;4.42;43.95
66887;BME280;67239;51.680;5.976;2023-02-28T10:37:42;103034.38;;;4.56;41.63
66887;BME280;67239;51.680;5.976;2023-02-28T10:46:22;103041.25;;;4.54;41.89
66887;BME280;67239;51.680;5.976;2023-02-28T10:49:05;103039.72;;;4.60;41.87
66887;BME280;67239;51.680;5.976;2023-02-28T10:51:40;103034.66;;;4.66;40.49
66887;BME280;67239;51.680;5.976;2023-02-28T10:54:43;103028.59;;;4.68;41.07
66887;BME280;67239;51.680;5.976;2023-02-28T10:57:19;103028.59;;;4.68;41.57
66887;BME280;67239;51.680;5.976;2023-02-28T10:59:52;103034.19;;;4.80;40.30
66887;BME280;67239;51.680;5.976;2023-02-28T11:02:32;103034.22;;;4.81;41.05
66887;BME280;67239;51.680;5.976;2023-02-28T11:10:46;103020.78;;;4.98;39.68
66887;BME280;67239;51.680;5.976;2023-02-28T11:13:21;103018.94;;;4.95;38.87
66887;BME280;67239;51.680;5.976;2023-02-28T11:15:59;103024.94;;;4.91;39.71
66887;BME280;67239;51.680;5.976;2023-02-28T11:18:34;103022.34;;;4.93;39.93
66887;BME280;67239;51.680;5.976;2023-02-28T11:21:04;103018.06;;;4.95;40.84
66887;BME280;67239;51.680;5.976;2023-02-28T11:23:34;103017.59;;;5.10;40.38
66887;BME280;67239;51.680;5.976;2023-02-28T11:26:04;103010.88;;;5.20;39.84
66887;BME280;67239;51.680;5.976;2023-02-28T11:28:41;103013.50;;;5.20;39.31
66887;BME280;67239;51.680;5.976;2023-02-28T11:33:43;103003.97;;;5.22;41.06
66887;BME280;67239;51.680;5.976;2023-02-28T11:36:24;102998.22;;;5.35;40.41
66887;BME280;67239;51.680;5.976;2023-02-28T11:38:55;103002.75;;;5.42;40.16
66887;BME280;67239;51.680;5.976;2023-02-28T11:44:51;103007.13;;;5.42;38.98
66887;BME280;67239;51.680;5.976;2023-02-28T11:50:16;102999.28;;;5.42;38.34
66887;BME280;67239;51.680;5.976;2023-02-28T11:53:16;103007.16;;;5.43;38.53
66887;BME280;67239;51.680;5.976;2023-02-28T11:56:05;103008.03;;;5.44;39.47
66887;BME280;67239;51.680;5.976;2023-02-28T12:07:42;102991.34;;;5.40;39.26
66887;BME280;67239;51.680;5.976;2023-02-28T12:10:25;102993.53;;;5.57;38.15
66887;BME280;67239;51.680;5.976;2023-02-28T12:13:38;102986.50;;;5.54;38.33
66887;BME280;67239;51.680;5.976;2023-02-28T12:19:20;102969.31;;;5.66;39.07
66887;BME280;67239;51.680;5.976;2023-02-28T12:27:40;102958.84;;;5.66;38.13
66887;BME280;67239;51.680;5.976;2023-02-28T12:30:24;102958.91;;;5.69;38.64
66887;BME280;67239;51.680;5.976;2023-02-28T12:33:16;102952.97;;;5.76;38.74
66887;BME280;67239;51.680;5.976;2023-02-28T12:38:34;102949.72;;;5.86;38.81
66887;BME280;67239;51.680;5.976;2023-02-28T12:41:12;102944.66;;;5.93;37.34
66887;BME280;67239;51.680;5.976;2023-02-28T12:43:47;102942.03;;;5.93;37.31
66887;BME280;67239;51.680;5.976;2023-02-28T12:46:24;102937.75;;;5.96;37.19
66887;BME280;67239;51.680;5.976;2023-02-28T12:48:57;102942.06;;;5.96;37.26
66887;BME280;67239;51.680;5.976;2023-02-28T12:51:28;102936.72;;;5.89;37.84
66887;BME280;67239;51.680;5.976;2023-02-28T12:54:25;102934.19;;;5.94;37.46
66887;BME280;67239;51.680;5.976;2023-02-28T12:59:52;102926.44;;;5.97;37.55
66887;BME280;67239;51.680;5.976;2023-02-28T13:05:49;102916.81;;;5.98;38.33
66887;BME280;67239;51.680;5.976;2023-02-28T13:08:59;102918.88;;;6.10;38.08
66887;BME280;67239;51.680;5.976;2023-02-28T13:11:50;102918.91;;;6.13;38.01
66887;BME280;67239;51.680;5.976;2023-02-28T13:19:41;102904.72;;;6.01;38.29
66887;BME280;67239;51.680;5.976;2023-02-28T13:27:53;102903.94;;;6.05;37.63
66887;BME280;67239;51.680;5.976;2023-02-28T13:33:35;102893.66;;;6.15;38.83
66887;BME280;67239;51.680;5.976;2023-02-28T13:38:42;102893.06;;;6.28;38.37
66887;BME280;67239;51.680;5.976;2023-02-28T13:44:12;102892.34;;;6.35;38.27
66887;BME280;67239;51.680;5.976;2023-02-28T13:49:31;102879.34;;;6.42;38.91
66887;BME280;67239;51.680;5.976;2023-02-28T14:01:06;102890.81;;;6.47;36.84
66887;BME280;67239;51.680;5.976;2023-02-28T14:06:58;102889.41;;;6.20;37.48
66887;BME280;67239;51.680;5.976;2023-02-28T14:09:30;102887.56;;;6.16;37.74
66887;BME280;67239;51.680;5.976;2023-02-28T14:18:01;102886.75;;;6.18;37.71
66887;BME280;67239;51.680;5.976;2023-02-28T14:20:33;102885.03;;;6.20;37.52
66887;BME280;67239;51.680;5.976;2023-02-28T14:23:16;102887.69;;;6.22;37.77
66887;BME280;67239;51.680;5.976;2023-02-28T14:35:35;102876.53;;;6.32;37.70
66887;BME280;67239;51.680;5.976;2023-02-28T14:37:55;102876.59;;;6.34;37.42
66887;BME280;67239;51.680;5.976;2023-02-28T14:40:33;102879.13;;;6.29;37.24
66887;BME280;67239;51.680;5.976;2023-02-28T14:43:04;102874.63;;;6.24;37.92
66887;BME280;67239;51.680;5.976;2023-02-28T14:45:34;102870.41;;;6.30;37.74
66887;BME280;67239;51.680;5.976;2023-02-28T14:48:04;102869.53;;;6.31;37.88
66887;BME280;67239;51.680;5.976;2023-02-28T14:50:37;102859.97;;;6.33;38.08
66887;BME280;67239;51.680;5.976;2023-02-28T14:53:06;102867.84;;;6.33;38.02
66887;BME280;67239;51.680;5.976;2023-02-28T14:55:45;102871.22;;;6.28;38.15
66887;BME280;67239;51.680;5.976;2023-02-28T15:00:52;102869.75;;;6.42;38.33
66887;BME280;67239;51.680;5.976;2023-02-28T15:03:38;102868.94;;;6.46;37.45
66887;BME280;67239;51.680;5.976;2023-02-28T15:06:13;102873.06;;;6.33;38.19
66887;BME280;67239;51.680;5.976;2023-02-28T15:08:45;102863.50;;;6.34;38.17
66887;BME280;67239;51.680;5.976;2023-02-28T15:11:19;102854.66;;;6.29;38.45
66887;BME280;67239;51.680;5.976;2023-02-28T15:13:52;102858.16;;;6.29;38.55
66887;BME280;67239;51.680;5.976;2023-02-28T15:16:25;102858.16;;;6.29;38.92
66887;BME280;67239;51.680;5.976;2023-02-28T15:19:02;102860.81;;;6.32;38.33
66887;BME280;67239;51.680;5.976;2023-02-28T15:21:36;102871.22;;;6.28;38.57
66887;BME280;67239;51.680;5.976;2023-02-28T15:27:10;102859.59;;;6.15;38.37
66887;BME280;67239;51.680;5.976;2023-02-28T15:29:46;102861.34;;;6.14;38.79
66887;BME280;67239;51.680;5.976;2023-02-28T15:34:57;102859.69;;;6.18;38.83
66887;BME280;67239;51.680;5.976;2023-02-28T15:40:17;102856.25;;;6.22;38.67
66887;BME280;67239;51.680;5.976;2023-02-28T15:43:00;102862.22;;;6.15;38.87
66887;BME280;67239;51.680;5.976;2023-02-28T15:45:37;102859.41;;;6.05;38.99
66887;BME280;67239;51.680;5.976;2023-02-28T15:48:18;102861.16;;;6.05;39.24
66887;BME280;67239;51.680;5.976;2023-02-28T15:50:49;102853.31;;;6.05;39.13
66887;BME280;67239;51.680;5.976;2023-02-28T15:53:32;102863.59;;;5.99;39.08